sensor_id;sensor_type;location;lat;lon;timestamp;P1;durP1;ratioP1;P2;durP2;ratioP2
77826;SDS011;67016;42.508;25.678;2023-03-21T00:00:19;19.38;;;12.50;;
77826;SDS011;67016;42.508;25.678;2023-03-21T00:02:45;19.70;;;12.88;;
77826;SDS011;67016;42.508;25.678;2023-03-21T00:05:11;25.17;;;12.55;;
77826;SDS011;67016;42.508;25.678;2023-03-21T00:07:36;19.63;;;13.52;;
77826;SDS011;67016;42.508;25.678;2023-03-21T00:10:02;23.70;;;14.48;;
77826;SDS011;67016;42.508;25.678;2023-03-21T00:12:28;18.30;;;12.68;;
77826;SDS011;67016;42.508;25.678;2023-03-21T00:14:59;21.85;;;13.45;;
77826;SDS011;67016;42.508;25.678;2023-03-21T00:17:30;20.85;;;13.43;;
77826;SDS011;67016;42.508;25.678;2023-03-21T00:19:59;24.17;;;14.23;;
77826;SDS011;67016;42.508;25.678;2023-03-21T00:22:26;22.10;;;14.40;;
77826;SDS011;67016;42.508;25.678;2023-03-21T00:24:53;21.40;;;13.93;;
77826;SDS011;67016;42.508;25.678;2023-03-21T00:27:19;34.08;;;18.88;;
77826;SDS011;67016;42.508;25.678;2023-03-21T00:29:45;31.13;;;17.45;;
77826;SDS011;67016;42.508;25.678;2023-03-21T00:32:14;20.83;;;13.57;;
77826;SDS011;67016;42.508;25.678;2023-03-21T00:34:43;19.13;;;13.23;;
77826;SDS011;67016;42.508;25.678;2023-03-21T00:37:09;24.48;;;14.45;;
77826;SDS011;67016;42.508;25.678;2023-03-21T00:39:38;21.27;;;13.02;;
77826;SDS011;67016;42.508;25.678;2023-03-21T00:42:04;26.02;;;14.63;;
77826;SDS011;67016;42.508;25.678;2023-03-21T00:44:30;22.98;;;14.00;;
77826;SDS011;67016;42.508;25.678;2023-03-21T00:47:03;28.42;;;14.63;;
77826;SDS011;67016;42.508;25.678;2023-03-21T00:49:29;25.15;;;14.30;;
77826;SDS011;67016;42.508;25.678;2023-03-21T00:51:59;24.10;;;14.82;;
77826;SDS011;67016;42.508;25.678;2023-03-21T00:54:28;20.40;;;13.68;;
77826;SDS011;67016;42.508;25.678;2023-03-21T00:56:54;24.70;;;13.85;;
77826;SDS011;67016;42.508;25.678;2023-03-21T00:59:19;23.67;;;13.90;;
77826;SDS011;67016;42.508;25.678;2023-03-21T01:01:45;24.13;;;13.65;;
77826;SDS011;67016;42.508;25.678;2023-03-21T01:04:11;22.02;;;14.10;;
77826;SDS011;67016;42.508;25.678;2023-03-21T01:06:39;22.55;;;14.50;;
77826;SDS011;67016;42.508;25.678;2023-03-21T01:09:07;25.13;;;15.52;;
77826;SDS011;67016;42.508;25.678;2023-03-21T01:11:36;24.50;;;14.65;;
77826;SDS011;67016;42.508;25.678;2023-03-21T01:14:02;29.15;;;14.52;;
77826;SDS011;67016;42.508;25.678;2023-03-21T01:16:28;26.35;;;14.68;;
77826;SDS011;67016;42.508;25.678;2023-03-21T01:18:54;22.52;;;14.98;;
77826;SDS011;67016;42.508;25.678;2023-03-21T01:21:21;24.23;;;15.27;;
77826;SDS011;67016;42.508;25.678;2023-03-21T01:23:47;26.67;;;16.23;;
77826;SDS011;67016;42.508;25.678;2023-03-21T01:26:13;25.63;;;15.07;;
77826;SDS011;67016;42.508;25.678;2023-03-21T01:28:45;19.00;;;12.75;;
77826;SDS011;67016;42.508;25.678;2023-03-21T01:31:12;24.67;;;14.70;;
77826;SDS011;67016;42.508;25.678;2023-03-21T01:33:39;24.02;;;14.32;;
77826;SDS011;67016;42.508;25.678;2023-03-21T01:36:05;24.63;;;13.95;;
77826;SDS011;67016;42.508;25.678;2023-03-21T01:38:31;26.92;;;14.35;;
77826;SDS011;67016;42.508;25.678;2023-03-21T01:40:58;23.13;;;14.32;;
77826;SDS011;67016;42.508;25.678;2023-03-21T01:43:29;32.78;;;17.52;;
77826;SDS011;67016;42.508;25.678;2023-03-21T01:46:16;26.45;;;16.00;;
77826;SDS011;67016;42.508;25.678;2023-03-21T01:48:50;24.02;;;14.57;;
77826;SDS011;67016;42.508;25.678;2023-03-21T01:51:19;22.70;;;15.05;;
77826;SDS011;67016;42.508;25.678;2023-03-21T01:53:46;21.75;;;13.98;;
77826;SDS011;67016;42.508;25.678;2023-03-21T01:56:21;23.58;;;14.73;;
77826;SDS011;67016;42.508;25.678;2023-03-21T01:58:48;23.00;;;14.68;;
77826;SDS011;67016;42.508;25.678;2023-03-21T02:01:14;28.42;;;15.38;;
77826;SDS011;67016;42.508;25.678;2023-03-21T02:03:41;26.45;;;16.00;;
77826;SDS011;67016;42.508;25.678;2023-03-21T02:06:17;28.75;;;16.33;;
77826;SDS011;67016;42.508;25.678;2023-03-21T02:08:46;24.85;;;15.13;;
77826;SDS011;67016;42.508;25.678;2023-03-21T02:11:12;23.25;;;14.35;;
77826;SDS011;67016;42.508;25.678;2023-03-21T02:13:38;21.90;;;14.55;;
77826;SDS011;67016;42.508;25.678;2023-03-21T02:16:26;22.52;;;14.15;;
77826;SDS011;67016;42.508;25.678;2023-03-21T02:19:03;21.55;;;14.10;;
77826;SDS011;67016;42.508;25.678;2023-03-21T02:21:52;23.33;;;15.45;;
77826;SDS011;67016;42.508;25.678;2023-03-21T02:24:56;25.60;;;14.20;;
77826;SDS011;67016;42.508;25.678;2023-03-21T02:27:58;24.13;;;14.63;;
77826;SDS011;67016;42.508;25.678;2023-03-21T02:30:40;23.70;;;14.02;;
77826;SDS011;67016;42.508;25.678;2023-03-21T02:47:41;24.70;;;14.05;;
77826;SDS011;67016;42.508;25.678;2023-03-21T02:50:15;23.45;;;14.40;;
77826;SDS011;67016;42.508;25.678;2023-03-21T02:52:42;22.88;;;15.00;;
77826;SDS011;67016;42.508;25.678;2023-03-21T02:55:12;23.13;;;15.25;;
77826;SDS011;67016;42.508;25.678;2023-03-21T02:57:40;20.70;;;13.55;;
77826;SDS011;67016;42.508;25.678;2023-03-21T03:00:08;21.75;;;13.15;;
77826;SDS011;67016;42.508;25.678;2023-03-21T03:02:48;23.20;;;13.43;;
77826;SDS011;67016;42.508;25.678;2023-03-21T03:05:16;23.50;;;12.98;;
77826;SDS011;67016;42.508;25.678;2023-03-21T03:16:04;19.35;;;12.82;;
77826;SDS011;67016;42.508;25.678;2023-03-21T03:18:47;26.63;;;13.60;;
77826;SDS011;67016;42.508;25.678;2023-03-21T03:21:19;22.92;;;13.10;;
77826;SDS011;67016;42.508;25.678;2023-03-21T03:23:58;20.13;;;12.77;;
77826;SDS011;67016;42.508;25.678;2023-03-21T03:28:59;20.17;;;12.15;;
77826;SDS011;67016;42.508;25.678;2023-03-21T03:31:29;18.48;;;12.63;;
77826;SDS011;67016;42.508;25.678;2023-03-21T03:34:04;21.40;;;12.30;;
77826;SDS011;67016;42.508;25.678;2023-03-21T03:36:32;23.73;;;12.48;;
77826;SDS011;67016;42.508;25.678;2023-03-21T03:39:05;20.05;;;12.68;;
77826;SDS011;67016;42.508;25.678;2023-03-21T03:41:34;21.20;;;13.65;;
77826;SDS011;67016;42.508;25.678;2023-03-21T03:44:05;20.30;;;13.15;;
77826;SDS011;67016;42.508;25.678;2023-03-21T03:46:32;22.27;;;12.82;;
77826;SDS011;67016;42.508;25.678;2023-03-21T03:49:24;19.00;;;13.52;;
77826;SDS011;67016;42.508;25.678;2023-03-21T03:51:50;22.23;;;13.73;;
77826;SDS011;67016;42.508;25.678;2023-03-21T03:57:01;20.63;;;12.93;;
77826;SDS011;67016;42.508;25.678;2023-03-21T03:59:28;22.75;;;14.05;;
77826;SDS011;67016;42.508;25.678;2023-03-21T04:01:54;24.25;;;13.45;;
77826;SDS011;67016;42.508;25.678;2023-03-21T04:04:20;21.20;;;13.02;;
77826;SDS011;67016;42.508;25.678;2023-03-21T04:06:47;21.08;;;12.73;;
77826;SDS011;67016;42.508;25.678;2023-03-21T04:09:16;21.52;;;12.95;;
77826;SDS011;67016;42.508;25.678;2023-03-21T04:11:43;21.38;;;13.93;;
77826;SDS011;67016;42.508;25.678;2023-03-21T04:14:08;23.67;;;13.63;;
77826;SDS011;67016;42.508;25.678;2023-03-21T04:16:35;24.75;;;14.75;;
77826;SDS011;67016;42.508;25.678;2023-03-21T04:19:01;24.27;;;13.73;;
77826;SDS011;67016;42.508;25.678;2023-03-21T04:21:30;21.52;;;13.18;;
77826;SDS011;67016;42.508;25.678;2023-03-21T04:23:56;19.17;;;12.55;;
77826;SDS011;67016;42.508;25.678;2023-03-21T04:26:22;22.52;;;13.48;;
77826;SDS011;67016;42.508;25.678;2023-03-21T04:28:48;20.90;;;13.43;;
77826;SDS011;67016;42.508;25.678;2023-03-21T04:31:15;21.17;;;13.50;;
77826;SDS011;67016;42.508;25.678;2023-03-21T04:33:44;21.42;;;13.52;;
77826;SDS011;67016;42.508;25.678;2023-03-21T04:36:12;18.75;;;13.40;;
77826;SDS011;67016;42.508;25.678;2023-03-21T04:38:49;19.05;;;13.27;;
77826;SDS011;67016;42.508;25.678;2023-03-21T04:41:15;21.38;;;13.60;;
77826;SDS011;67016;42.508;25.678;2023-03-21T04:43:41;23.80;;;15.18;;
77826;SDS011;67016;42.508;25.678;2023-03-21T04:46:06;21.13;;;13.45;;
77826;SDS011;67016;42.508;25.678;2023-03-21T04:48:32;20.05;;;13.13;;
77826;SDS011;67016;42.508;25.678;2023-03-21T04:50:58;26.75;;;13.88;;
77826;SDS011;67016;42.508;25.678;2023-03-21T04:53:24;19.42;;;12.48;;
77826;SDS011;67016;42.508;25.678;2023-03-21T04:55:50;21.30;;;12.77;;
77826;SDS011;67016;42.508;25.678;2023-03-21T04:58:16;20.17;;;13.20;;
77826;SDS011;67016;42.508;25.678;2023-03-21T05:00:44;24.52;;;13.75;;
77826;SDS011;67016;42.508;25.678;2023-03-21T05:03:11;19.70;;;13.85;;
77826;SDS011;67016;42.508;25.678;2023-03-21T05:05:44;20.35;;;13.82;;
77826;SDS011;67016;42.508;25.678;2023-03-21T05:08:10;24.45;;;13.70;;
77826;SDS011;67016;42.508;25.678;2023-03-21T05:10:36;26.90;;;14.52;;
77826;SDS011;67016;42.508;25.678;2023-03-21T05:13:01;27.30;;;13.20;;
77826;SDS011;67016;42.508;25.678;2023-03-21T05:15:27;27.25;;;13.35;;
77826;SDS011;67016;42.508;25.678;2023-03-21T05:17:53;25.33;;;13.27;;
77826;SDS011;67016;42.508;25.678;2023-03-21T05:20:19;22.25;;;12.95;;
77826;SDS011;67016;42.508;25.678;2023-03-21T05:22:49;23.08;;;13.25;;
77826;SDS011;67016;42.508;25.678;2023-03-21T05:25:16;20.33;;;13.90;;
77826;SDS011;67016;42.508;25.678;2023-03-21T05:27:45;22.20;;;14.13;;
77826;SDS011;67016;42.508;25.678;2023-03-21T05:30:18;22.30;;;13.65;;
77826;SDS011;67016;42.508;25.678;2023-03-21T05:32:44;23.20;;;13.25;;
77826;SDS011;67016;42.508;25.678;2023-03-21T05:35:10;22.15;;;13.73;;
77826;SDS011;67016;42.508;25.678;2023-03-21T05:37:36;25.92;;;14.40;;
77826;SDS011;67016;42.508;25.678;2023-03-21T05:40:03;26.25;;;14.40;;
77826;SDS011;67016;42.508;25.678;2023-03-21T05:42:30;26.45;;;13.93;;
77826;SDS011;67016;42.508;25.678;2023-03-21T05:44:56;24.80;;;14.10;;
77826;SDS011;67016;42.508;25.678;2023-03-21T05:47:22;27.33;;;14.65;;
77826;SDS011;67016;42.508;25.678;2023-03-21T05:49:48;25.15;;;13.85;;
77826;SDS011;67016;42.508;25.678;2023-03-21T05:52:14;25.38;;;15.02;;
77826;SDS011;67016;42.508;25.678;2023-03-21T05:54:40;25.20;;;14.90;;
77826;SDS011;67016;42.508;25.678;2023-03-21T05:57:06;31.15;;;15.10;;
77826;SDS011;67016;42.508;25.678;2023-03-21T05:59:31;26.63;;;14.88;;
77826;SDS011;67016;42.508;25.678;2023-03-21T06:01:57;30.52;;;16.05;;
77826;SDS011;67016;42.508;25.678;2023-03-21T06:04:23;30.50;;;17.77;;
77826;SDS011;67016;42.508;25.678;2023-03-21T06:06:51;31.30;;;17.65;;
77826;SDS011;67016;42.508;25.678;2023-03-21T06:09:18;32.55;;;17.48;;
77826;SDS011;67016;42.508;25.678;2023-03-21T06:11:46;27.90;;;17.67;;
77826;SDS011;67016;42.508;25.678;2023-03-21T06:14:13;32.45;;;17.55;;
77826;SDS011;67016;42.508;25.678;2023-03-21T06:16:40;37.97;;;19.27;;
77826;SDS011;67016;42.508;25.678;2023-03-21T06:19:06;38.35;;;18.30;;
77826;SDS011;67016;42.508;25.678;2023-03-21T06:21:32;27.35;;;17.42;;
77826;SDS011;67016;42.508;25.678;2023-03-21T06:23:57;33.88;;;20.55;;
77826;SDS011;67016;42.508;25.678;2023-03-21T06:26:24;28.40;;;16.73;;
77826;SDS011;67016;42.508;25.678;2023-03-21T06:28:50;38.95;;;20.38;;
77826;SDS011;67016;42.508;25.678;2023-03-21T06:31:17;34.28;;;19.17;;
77826;SDS011;67016;42.508;25.678;2023-03-21T06:33:44;33.88;;;17.73;;
77826;SDS011;67016;42.508;25.678;2023-03-21T06:36:10;37.95;;;16.15;;
77826;SDS011;67016;42.508;25.678;2023-03-21T06:38:36;30.73;;;14.52;;
77826;SDS011;67016;42.508;25.678;2023-03-21T06:41:05;33.10;;;18.00;;
77826;SDS011;67016;42.508;25.678;2023-03-21T06:43:32;33.28;;;15.85;;
77826;SDS011;67016;42.508;25.678;2023-03-21T06:45:58;32.78;;;13.98;;
77826;SDS011;67016;42.508;25.678;2023-03-21T06:48:24;30.23;;;14.48;;
77826;SDS011;67016;42.508;25.678;2023-03-21T06:50:50;33.00;;;17.13;;
77826;SDS011;67016;42.508;25.678;2023-03-21T06:53:16;38.83;;;17.33;;
77826;SDS011;67016;42.508;25.678;2023-03-21T06:55:48;30.52;;;15.00;;
77826;SDS011;67016;42.508;25.678;2023-03-21T06:58:14;31.55;;;15.25;;
77826;SDS011;67016;42.508;25.678;2023-03-21T07:00:40;25.70;;;13.48;;
77826;SDS011;67016;42.508;25.678;2023-03-21T07:03:06;23.45;;;12.55;;
77826;SDS011;67016;42.508;25.678;2023-03-21T07:05:31;26.80;;;12.75;;
77826;SDS011;67016;42.508;25.678;2023-03-21T07:07:57;30.42;;;12.55;;
77826;SDS011;67016;42.508;25.678;2023-03-21T07:10:25;23.10;;;12.77;;
77826;SDS011;67016;42.508;25.678;2023-03-21T07:12:50;26.92;;;14.15;;
77826;SDS011;67016;42.508;25.678;2023-03-21T07:15:16;25.73;;;12.80;;
77826;SDS011;67016;42.508;25.678;2023-03-21T07:17:42;25.20;;;13.43;;
77826;SDS011;67016;42.508;25.678;2023-03-21T07:20:11;20.75;;;12.35;;
77826;SDS011;67016;42.508;25.678;2023-03-21T07:22:37;23.55;;;11.90;;
77826;SDS011;67016;42.508;25.678;2023-03-21T07:25:03;18.52;;;11.77;;
77826;SDS011;67016;42.508;25.678;2023-03-21T07:27:29;19.63;;;11.43;;
77826;SDS011;67016;42.508;25.678;2023-03-21T07:29:56;23.30;;;11.63;;
77826;SDS011;67016;42.508;25.678;2023-03-21T07:32:22;22.35;;;11.85;;
77826;SDS011;67016;42.508;25.678;2023-03-21T07:34:49;22.77;;;12.32;;
77826;SDS011;67016;42.508;25.678;2023-03-21T07:37:14;20.80;;;11.48;;
77826;SDS011;67016;42.508;25.678;2023-03-21T07:39:40;23.17;;;11.75;;
77826;SDS011;67016;42.508;25.678;2023-03-21T07:42:07;25.70;;;12.60;;
77826;SDS011;67016;42.508;25.678;2023-03-21T07:44:33;28.17;;;13.35;;
77826;SDS011;67016;42.508;25.678;2023-03-21T07:46:59;24.92;;;12.43;;
77826;SDS011;67016;42.508;25.678;2023-03-21T07:49:25;21.65;;;12.75;;
77826;SDS011;67016;42.508;25.678;2023-03-21T07:51:50;27.15;;;14.00;;
77826;SDS011;67016;42.508;25.678;2023-03-21T07:54:16;30.35;;;13.35;;
77826;SDS011;67016;42.508;25.678;2023-03-21T07:56:45;25.27;;;12.52;;
77826;SDS011;67016;42.508;25.678;2023-03-21T07:59:10;24.45;;;12.60;;
77826;SDS011;67016;42.508;25.678;2023-03-21T08:01:36;19.08;;;12.27;;
77826;SDS011;67016;42.508;25.678;2023-03-21T08:04:02;23.25;;;12.82;;
77826;SDS011;67016;42.508;25.678;2023-03-21T08:06:28;19.83;;;12.30;;
77826;SDS011;67016;42.508;25.678;2023-03-21T08:08:56;23.95;;;12.90;;
77826;SDS011;67016;42.508;25.678;2023-03-21T08:11:27;20.90;;;11.63;;
77826;SDS011;67016;42.508;25.678;2023-03-21T08:13:55;28.38;;;13.02;;
77826;SDS011;67016;42.508;25.678;2023-03-21T08:16:22;22.92;;;12.90;;
77826;SDS011;67016;42.508;25.678;2023-03-21T08:18:48;28.83;;;13.95;;
77826;SDS011;67016;42.508;25.678;2023-03-21T08:21:14;23.90;;;12.68;;
77826;SDS011;67016;42.508;25.678;2023-03-21T08:23:40;27.33;;;13.60;;
77826;SDS011;67016;42.508;25.678;2023-03-21T08:26:06;25.25;;;12.65;;
77826;SDS011;67016;42.508;25.678;2023-03-21T08:28:33;20.77;;;12.93;;
77826;SDS011;67016;42.508;25.678;2023-03-21T08:31:05;22.77;;;13.00;;
77826;SDS011;67016;42.508;25.678;2023-03-21T08:33:33;31.08;;;13.20;;
77826;SDS011;67016;42.508;25.678;2023-03-21T08:38:26;27.60;;;14.35;;
77826;SDS011;67016;42.508;25.678;2023-03-21T08:40:54;24.25;;;13.48;;
77826;SDS011;67016;42.508;25.678;2023-03-21T08:43:21;29.30;;;13.40;;
77826;SDS011;67016;42.508;25.678;2023-03-21T08:45:47;24.98;;;12.20;;
77826;SDS011;67016;42.508;25.678;2023-03-21T08:48:14;21.60;;;12.32;;
77826;SDS011;67016;42.508;25.678;2023-03-21T08:50:40;25.30;;;12.48;;
77826;SDS011;67016;42.508;25.678;2023-03-21T08:53:06;23.25;;;11.30;;
77826;SDS011;67016;42.508;25.678;2023-03-21T08:55:31;19.13;;;11.57;;
77826;SDS011;67016;42.508;25.678;2023-03-21T08:57:58;18.15;;;12.38;;
77826;SDS011;67016;42.508;25.678;2023-03-21T09:00:25;22.90;;;11.57;;
77826;SDS011;67016;42.508;25.678;2023-03-21T09:02:51;23.40;;;12.95;;
77826;SDS011;67016;42.508;25.678;2023-03-21T09:05:18;30.63;;;14.70;;
77826;SDS011;67016;42.508;25.678;2023-03-21T09:07:45;25.55;;;13.20;;
77826;SDS011;67016;42.508;25.678;2023-03-21T09:10:13;23.38;;;12.50;;
77826;SDS011;67016;42.508;25.678;2023-03-21T09:12:41;18.35;;;12.25;;
77826;SDS011;67016;42.508;25.678;2023-03-21T09:15:09;22.65;;;12.43;;
77826;SDS011;67016;42.508;25.678;2023-03-21T09:17:39;28.25;;;12.50;;
77826;SDS011;67016;42.508;25.678;2023-03-21T09:20:11;19.80;;;12.15;;
77826;SDS011;67016;42.508;25.678;2023-03-21T09:22:44;26.25;;;12.02;;
77826;SDS011;67016;42.508;25.678;2023-03-21T09:25:14;23.35;;;11.95;;
77826;SDS011;67016;42.508;25.678;2023-03-21T09:27:41;22.83;;;13.52;;
77826;SDS011;67016;42.508;25.678;2023-03-21T09:30:17;20.50;;;11.30;;
77826;SDS011;67016;42.508;25.678;2023-03-21T09:32:45;20.85;;;12.02;;
77826;SDS011;67016;42.508;25.678;2023-03-21T09:35:13;25.55;;;12.77;;
77826;SDS011;67016;42.508;25.678;2023-03-21T09:37:40;23.20;;;12.02;;
77826;SDS011;67016;42.508;25.678;2023-03-21T09:40:16;20.17;;;11.52;;
77826;SDS011;67016;42.508;25.678;2023-03-21T09:51:36;16.88;;;10.82;;
77826;SDS011;67016;42.508;25.678;2023-03-21T09:56:43;23.98;;;11.00;;
77826;SDS011;67016;42.508;25.678;2023-03-21T09:59:17;20.05;;;12.00;;
77826;SDS011;67016;42.508;25.678;2023-03-21T10:01:47;25.75;;;11.75;;
77826;SDS011;67016;42.508;25.678;2023-03-21T10:04:14;22.30;;;12.00;;
77826;SDS011;67016;42.508;25.678;2023-03-21T10:06:46;28.98;;;11.57;;
77826;SDS011;67016;42.508;25.678;2023-03-21T10:09:19;25.27;;;11.75;;
77826;SDS011;67016;42.508;25.678;2023-03-21T10:11:49;22.00;;;12.77;;
77826;SDS011;67016;42.508;25.678;2023-03-21T10:14:24;18.83;;;11.50;;
77826;SDS011;67016;42.508;25.678;2023-03-21T10:16:56;22.55;;;11.88;;
77826;SDS011;67016;42.508;25.678;2023-03-21T10:19:27;20.70;;;11.23;;
77826;SDS011;67016;42.508;25.678;2023-03-21T10:21:53;20.83;;;11.85;;
77826;SDS011;67016;42.508;25.678;2023-03-21T10:24:23;23.05;;;10.77;;
77826;SDS011;67016;42.508;25.678;2023-03-21T10:26:51;20.40;;;10.30;;
77826;SDS011;67016;42.508;25.678;2023-03-21T10:29:17;21.05;;;10.82;;
77826;SDS011;67016;42.508;25.678;2023-03-21T10:31:47;20.63;;;10.00;;
77826;SDS011;67016;42.508;25.678;2023-03-21T10:34:35;21.00;;;10.77;;
77826;SDS011;67016;42.508;25.678;2023-03-21T10:37:04;15.48;;;9.45;;
77826;SDS011;67016;42.508;25.678;2023-03-21T10:39:32;21.08;;;11.23;;
77826;SDS011;67016;42.508;25.678;2023-03-21T10:42:00;22.25;;;11.30;;
77826;SDS011;67016;42.508;25.678;2023-03-21T10:44:30;16.40;;;10.32;;
77826;SDS011;67016;42.508;25.678;2023-03-21T10:46:58;18.63;;;9.85;;
77826;SDS011;67016;42.508;25.678;2023-03-21T10:49:29;19.17;;;10.52;;
77826;SDS011;67016;42.508;25.678;2023-03-21T10:51:58;21.77;;;11.73;;
77826;SDS011;67016;42.508;25.678;2023-03-21T10:54:28;17.73;;;10.18;;
77826;SDS011;67016;42.508;25.678;2023-03-21T10:59:34;19.80;;;11.23;;
77826;SDS011;67016;42.508;25.678;2023-03-21T11:02:31;22.55;;;11.70;;
77826;SDS011;67016;42.508;25.678;2023-03-21T11:05:05;26.00;;;11.82;;
77826;SDS011;67016;42.508;25.678;2023-03-21T11:07:34;20.02;;;10.50;;
77826;SDS011;67016;42.508;25.678;2023-03-21T11:10:08;18.15;;;9.93;;
77826;SDS011;67016;42.508;25.678;2023-03-21T11:12:40;20.90;;;10.98;;
77826;SDS011;67016;42.508;25.678;2023-03-21T11:18:18;17.00;;;10.27;;
77826;SDS011;67016;42.508;25.678;2023-03-21T11:20:55;18.35;;;11.25;;
77826;SDS011;67016;42.508;25.678;2023-03-21T11:23:27;19.98;;;10.73;;
77826;SDS011;67016;42.508;25.678;2023-03-21T11:25:54;21.45;;;11.38;;
77826;SDS011;67016;42.508;25.678;2023-03-21T11:28:23;24.95;;;12.18;;
77826;SDS011;67016;42.508;25.678;2023-03-21T11:30:58;24.17;;;11.10;;
77826;SDS011;67016;42.508;25.678;2023-03-21T11:33:26;17.77;;;11.02;;
77826;SDS011;67016;42.508;25.678;2023-03-21T11:38:28;27.15;;;11.32;;
77826;SDS011;67016;42.508;25.678;2023-03-21T11:40:57;17.95;;;10.82;;
77826;SDS011;67016;42.508;25.678;2023-03-21T11:43:26;21.23;;;10.93;;
77826;SDS011;67016;42.508;25.678;2023-03-21T11:48:27;17.88;;;9.88;;
77826;SDS011;67016;42.508;25.678;2023-03-21T11:51:03;19.73;;;10.68;;
77826;SDS011;67016;42.508;25.678;2023-03-21T11:56:46;16.17;;;9.25;;
77826;SDS011;67016;42.508;25.678;2023-03-21T11:59:23;20.77;;;9.40;;
77826;SDS011;67016;42.508;25.678;2023-03-21T12:02:38;17.13;;;10.60;;
77826;SDS011;67016;42.508;25.678;2023-03-21T12:05:18;18.42;;;9.73;;
77826;SDS011;67016;42.508;25.678;2023-03-21T12:10:41;18.98;;;10.88;;
77826;SDS011;67016;42.508;25.678;2023-03-21T12:19:30;18.40;;;9.43;;
77826;SDS011;67016;42.508;25.678;2023-03-21T12:24:50;19.25;;;10.73;;
77826;SDS011;67016;42.508;25.678;2023-03-21T12:27:38;20.92;;;10.02;;
77826;SDS011;67016;42.508;25.678;2023-03-21T12:30:50;16.77;;;9.50;;
77826;SDS011;67016;42.508;25.678;2023-03-21T12:38:21;21.35;;;8.90;;
77826;SDS011;67016;42.508;25.678;2023-03-21T12:48:54;22.08;;;10.93;;
77826;SDS011;67016;42.508;25.678;2023-03-21T12:51:31;19.40;;;9.52;;
77826;SDS011;67016;42.508;25.678;2023-03-21T12:54:04;15.23;;;9.43;;
77826;SDS011;67016;42.508;25.678;2023-03-21T12:56:39;16.02;;;8.60;;
77826;SDS011;67016;42.508;25.678;2023-03-21T12:59:13;18.73;;;10.18;;
77826;SDS011;67016;42.508;25.678;2023-03-21T13:01:42;17.35;;;9.90;;
77826;SDS011;67016;42.508;25.678;2023-03-21T13:04:26;15.07;;;10.10;;
77826;SDS011;67016;42.508;25.678;2023-03-21T13:06:57;13.88;;;9.40;;
77826;SDS011;67016;42.508;25.678;2023-03-21T13:09:32;24.15;;;9.80;;
77826;SDS011;67016;42.508;25.678;2023-03-21T13:12:04;14.18;;;9.80;;
77826;SDS011;67016;42.508;25.678;2023-03-21T13:14:37;13.95;;;8.15;;
77826;SDS011;67016;42.508;25.678;2023-03-21T13:20:25;17.23;;;8.50;;
77826;SDS011;67016;42.508;25.678;2023-03-21T13:22:57;15.85;;;7.00;;
77826;SDS011;67016;42.508;25.678;2023-03-21T13:25:25;9.85;;;7.45;;
77826;SDS011;67016;42.508;25.678;2023-03-21T13:27:53;11.68;;;7.60;;
77826;SDS011;67016;42.508;25.678;2023-03-21T13:30:24;15.55;;;7.32;;
77826;SDS011;67016;42.508;25.678;2023-03-21T13:33:04;17.63;;;8.50;;
77826;SDS011;67016;42.508;25.678;2023-03-21T13:35:35;17.63;;;9.20;;
77826;SDS011;67016;42.508;25.678;2023-03-21T13:38:16;8.93;;;6.70;;
77826;SDS011;67016;42.508;25.678;2023-03-21T13:40:49;14.10;;;7.95;;
77826;SDS011;67016;42.508;25.678;2023-03-21T13:54:00;16.73;;;9.13;;
77826;SDS011;67016;42.508;25.678;2023-03-21T13:56:27;13.45;;;9.43;;
77826;SDS011;67016;42.508;25.678;2023-03-21T13:59:01;12.20;;;9.32;;
77826;SDS011;67016;42.508;25.678;2023-03-21T14:06:40;14.32;;;9.40;;
77826;SDS011;67016;42.508;25.678;2023-03-21T14:09:07;11.25;;;7.80;;
77826;SDS011;67016;42.508;25.678;2023-03-21T14:11:36;13.80;;;8.40;;
77826;SDS011;67016;42.508;25.678;2023-03-21T14:14:02;15.02;;;9.35;;
77826;SDS011;67016;42.508;25.678;2023-03-21T14:16:28;16.83;;;8.93;;
77826;SDS011;67016;42.508;25.678;2023-03-21T14:18:55;13.45;;;8.35;;
77826;SDS011;67016;42.508;25.678;2023-03-21T14:21:26;14.23;;;8.05;;
77826;SDS011;67016;42.508;25.678;2023-03-21T14:24:13;9.50;;;7.57;;
77826;SDS011;67016;42.508;25.678;2023-03-21T14:26:40;14.07;;;7.90;;
77826;SDS011;67016;42.508;25.678;2023-03-21T14:29:14;15.18;;;7.65;;
77826;SDS011;67016;42.508;25.678;2023-03-21T14:31:48;12.18;;;6.30;;
77826;SDS011;67016;42.508;25.678;2023-03-21T14:34:14;14.65;;;7.75;;
77826;SDS011;67016;42.508;25.678;2023-03-21T14:36:41;16.05;;;7.88;;
77826;SDS011;67016;42.508;25.678;2023-03-21T14:39:15;17.42;;;8.93;;
77826;SDS011;67016;42.508;25.678;2023-03-21T14:41:52;16.05;;;9.75;;
77826;SDS011;67016;42.508;25.678;2023-03-21T14:44:23;14.77;;;8.82;;
77826;SDS011;67016;42.508;25.678;2023-03-21T14:49:26;16.52;;;7.03;;
77826;SDS011;67016;42.508;25.678;2023-03-21T14:51:56;13.65;;;8.50;;
77826;SDS011;67016;42.508;25.678;2023-03-21T14:54:25;16.65;;;8.73;;
77826;SDS011;67016;42.508;25.678;2023-03-21T14:56:52;14.93;;;9.88;;
77826;SDS011;67016;42.508;25.678;2023-03-21T14:59:22;20.05;;;9.38;;
77826;SDS011;67016;42.508;25.678;2023-03-21T15:01:51;20.42;;;9.35;;
77826;SDS011;67016;42.508;25.678;2023-03-21T15:04:18;13.93;;;8.68;;
77826;SDS011;67016;42.508;25.678;2023-03-21T15:06:53;19.30;;;9.95;;
77826;SDS011;67016;42.508;25.678;2023-03-21T15:09:21;12.40;;;9.10;;
77826;SDS011;67016;42.508;25.678;2023-03-21T15:11:50;15.77;;;8.93;;
77826;SDS011;67016;42.508;25.678;2023-03-21T15:14:17;14.70;;;8.90;;
77826;SDS011;67016;42.508;25.678;2023-03-21T15:16:45;13.80;;;9.60;;
77826;SDS011;67016;42.508;25.678;2023-03-21T15:19:16;15.07;;;9.60;;
77826;SDS011;67016;42.508;25.678;2023-03-21T15:21:44;19.75;;;9.90;;
77826;SDS011;67016;42.508;25.678;2023-03-21T15:24:16;17.75;;;9.82;;
77826;SDS011;67016;42.508;25.678;2023-03-21T15:27:04;14.77;;;9.85;;
77826;SDS011;67016;42.508;25.678;2023-03-21T15:29:32;19.20;;;11.27;;
77826;SDS011;67016;42.508;25.678;2023-03-21T15:31:58;20.02;;;10.27;;
77826;SDS011;67016;42.508;25.678;2023-03-21T15:34:29;15.13;;;10.35;;
77826;SDS011;67016;42.508;25.678;2023-03-21T15:37:07;23.40;;;10.63;;
77826;SDS011;67016;42.508;25.678;2023-03-21T15:39:38;19.95;;;11.05;;
77826;SDS011;67016;42.508;25.678;2023-03-21T15:44:53;18.67;;;9.88;;
77826;SDS011;67016;42.508;25.678;2023-03-21T15:50:26;14.57;;;10.18;;
77826;SDS011;67016;42.508;25.678;2023-03-21T15:52:53;17.67;;;11.07;;
77826;SDS011;67016;42.508;25.678;2023-03-21T15:55:27;18.08;;;10.57;;
77826;SDS011;67016;42.508;25.678;2023-03-21T15:58:02;18.65;;;11.80;;
77826;SDS011;67016;42.508;25.678;2023-03-21T16:03:18;18.58;;;10.70;;
77826;SDS011;67016;42.508;25.678;2023-03-21T16:06:02;17.50;;;10.45;;
77826;SDS011;67016;42.508;25.678;2023-03-21T16:08:33;22.20;;;11.13;;
77826;SDS011;67016;42.508;25.678;2023-03-21T16:11:16;13.65;;;10.05;;
77826;SDS011;67016;42.508;25.678;2023-03-21T16:13:51;16.25;;;9.75;;
77826;SDS011;67016;42.508;25.678;2023-03-21T16:16:19;13.05;;;10.48;;